sensor_id;sensor_type;location;lat;lon;timestamp;pressure;altitude;pressure_sealevel;temperature;humidity
44926;BME280;30662;51.210;7.656;2023-03-25T00:00:59;150415.41;;;6.44;100.00
44926;BME280;30662;51.210;7.656;2023-03-25T00:03:27;150419.22;;;6.46;100.00
44926;BME280;30662;51.210;7.656;2023-03-25T00:05:55;150411.63;;;6.43;100.00
44926;BME280;30662;51.210;7.656;2023-03-25T00:08:23;150386.41;;;6.32;100.00
44926;BME280;30662;51.210;7.656;2023-03-25T00:10:53;150404.06;;;6.40;100.00
44926;BME280;30662;51.210;7.656;2023-03-25T00:13:20;150386.41;;;6.32;100.00
44926;BME280;30662;51.210;7.656;2023-03-25T00:15:47;150376.28;;;6.28;100.00
44926;BME280;30662;51.210;7.656;2023-03-25T00:18:14;150373.78;;;6.27;100.00
44926;BME280;30662;51.210;7.656;2023-03-25T00:20:42;150335.94;;;6.12;100.00
44926;BME280;30662;51.210;7.656;2023-03-25T00:23:11;150325.81;;;6.08;100.00
44926;BME280;30662;51.210;7.656;2023-03-25T00:25:37;150359.88;;;6.22;100.00
44926;BME280;30662;51.210;7.656;2023-03-25T00:28:03;150390.19;;;6.34;100.00
44926;BME280;30662;51.210;7.656;2023-03-25T00:30:29;150426.78;;;6.49;100.00
44926;BME280;30662;51.210;7.656;2023-03-25T00:32:55;150428.03;;;6.49;100.00
44926;BME280;30662;51.210;7.656;2023-03-25T00:35:22;150416.72;;;6.45;100.00
44926;BME280;30662;51.210;7.656;2023-03-25T00:37:50;150424.25;;;6.48;100.00
44926;BME280;30662;51.210;7.656;2023-03-25T00:40:25;150411.63;;;6.43;100.00
44926;BME280;30662;51.210;7.656;2023-03-25T00:42:53;150390.19;;;6.34;100.00
44926;BME280;30662;51.210;7.656;2023-03-25T00:45:19;150381.38;;;6.30;100.00
44926;BME280;30662;51.210;7.656;2023-03-25T00:47:45;150402.81;;;6.39;100.00
44926;BME280;30662;51.210;7.656;2023-03-25T00:50:11;150436.91;;;6.53;100.00
44926;BME280;30662;51.210;7.656;2023-03-25T00:52:37;150435.63;;;6.52;100.00
44926;BME280;30662;51.210;7.656;2023-03-25T00:55:04;150380.06;;;6.30;100.00
44926;BME280;30662;51.210;7.656;2023-03-25T00:57:30;150400.31;;;6.38;100.00
44926;BME280;30662;51.210;7.656;2023-03-25T00:59:56;150383.91;;;6.31;100.00
44926;BME280;30662;51.210;7.656;2023-03-25T01:02:22;150396.47;;;6.36;100.00
44926;BME280;30662;51.210;7.656;2023-03-25T01:04:49;150404.06;;;6.40;100.00
44926;BME280;30662;51.210;7.656;2023-03-25T01:07:16;150415.41;;;6.44;100.00
44926;BME280;30662;51.210;7.656;2023-03-25T01:09:43;150406.59;;;6.41;100.00
44926;BME280;30662;51.210;7.656;2023-03-25T01:12:11;150402.81;;;6.39;100.00
44926;BME280;30662;51.210;7.656;2023-03-25T01:14:37;150404.06;;;6.40;100.00
44926;BME280;30662;51.210;7.656;2023-03-25T01:17:03;150405.34;;;6.40;100.00
44926;BME280;30662;51.210;7.656;2023-03-25T01:19:29;150392.69;;;6.35;100.00
44926;BME280;30662;51.210;7.656;2023-03-25T01:21:55;150376.28;;;6.28;100.00
44926;BME280;30662;51.210;7.656;2023-03-25T01:24:21;150404.06;;;6.40;100.00
44926;BME280;30662;51.210;7.656;2023-03-25T01:26:47;150396.47;;;6.36;100.00
44926;BME280;30662;51.210;7.656;2023-03-25T01:29:15;150372.53;;;6.27;100.00
44926;BME280;30662;51.210;7.656;2023-03-25T01:31:41;150349.81;;;6.18;100.00
44926;BME280;30662;51.210;7.656;2023-03-25T01:34:08;150353.59;;;6.19;100.00
44926;BME280;30662;51.210;7.656;2023-03-25T01:36:34;150364.97;;;6.24;100.00
44926;BME280;30662;51.210;7.656;2023-03-25T01:39:03;150406.59;;;6.41;100.00
44926;BME280;30662;51.210;7.656;2023-03-25T01:41:31;150428.03;;;6.49;100.00
44926;BME280;30662;51.210;7.656;2023-03-25T01:46:47;150385.16;;;6.32;100.00
44926;BME280;30662;51.210;7.656;2023-03-25T01:49:43;150390.19;;;6.34;100.00
44926;BME280;30662;51.210;7.656;2023-03-25T01:52:13;150391.44;;;6.34;100.00
44926;BME280;30662;51.210;7.656;2023-03-25T01:54:41;150386.41;;;6.32;100.00
44926;BME280;30662;51.210;7.656;2023-03-25T01:57:09;150392.69;;;6.35;100.00
44926;BME280;30662;51.210;7.656;2023-03-25T01:59:37;150352.34;;;6.19;100.00
44926;BME280;30662;51.210;7.656;2023-03-25T02:02:05;150377.56;;;6.29;100.00
44926;BME280;30662;51.210;7.656;2023-03-25T02:04:42;150367.50;;;6.25;100.00
44926;BME280;30662;51.210;7.656;2023-03-25T02:07:10;150343.47;;;6.15;100.00
44926;BME280;30662;51.210;7.656;2023-03-25T02:09:37;150358.63;;;6.21;100.00
44926;BME280;30662;51.210;7.656;2023-03-25T02:12:03;150376.28;;;6.28;100.00
44926;BME280;30662;51.210;7.656;2023-03-25T02:14:32;150381.38;;;6.30;100.00
44926;BME280;30662;51.210;7.656;2023-03-25T02:26:04;150371.25;;;6.26;100.00
44926;BME280;30662;51.210;7.656;2023-03-25T02:28:47;150358.63;;;6.21;100.00
44926;BME280;30662;51.210;7.656;2023-03-25T02:37:06;150335.94;;;6.12;100.00
44926;BME280;30662;51.210;7.656;2023-03-25T02:42:19;150271.50;;;5.86;100.00
44926;BME280;30662;51.210;7.656;2023-03-25T02:47:23;150266.50;;;5.84;100.00
44926;BME280;30662;51.210;7.656;2023-03-25T02:49:57;150251.34;;;5.78;100.00
44926;BME280;30662;51.210;7.656;2023-03-25T02:52:36;150255.16;;;5.79;100.00
44926;BME280;30662;51.210;7.656;2023-03-25T02:55:06;150266.50;;;5.84;100.00
44926;BME280;30662;51.210;7.656;2023-03-25T02:57:38;150261.44;;;5.82;100.00
44926;BME280;30662;51.210;7.656;2023-03-25T03:00:06;150294.31;;;5.95;100.00
44926;BME280;30662;51.210;7.656;2023-03-25T03:02:47;150277.84;;;5.89;100.00
44926;BME280;30662;51.210;7.656;2023-03-25T03:05:27;150255.16;;;5.79;100.00
44926;BME280;30662;51.210;7.656;2023-03-25T03:22:02;150269.00;;;5.85;100.00
44926;BME280;30662;51.210;7.656;2023-03-25T03:24:39;150293.06;;;5.95;100.00
44926;BME280;30662;51.210;7.656;2023-03-25T03:27:29;150284.19;;;5.91;100.00
44926;BME280;30662;51.210;7.656;2023-03-25T03:32:53;150289.22;;;5.93;100.00
44926;BME280;30662;51.210;7.656;2023-03-25T03:35:43;150291.78;;;5.94;100.00
44926;BME280;30662;51.210;7.656;2023-03-25T03:38:18;150267.75;;;5.85;100.00
44926;BME280;30662;51.210;7.656;2023-03-25T03:40:51;150246.31;;;5.76;100.00
44926;BME280;30662;51.210;7.656;2023-03-25T03:43:25;150252.59;;;5.78;100.00
44926;BME280;30662;51.210;7.656;2023-03-25T03:45:58;150246.31;;;5.76;100.00
44926;BME280;30662;51.210;7.656;2023-03-25T03:48:32;150261.44;;;5.82;100.00
44926;BME280;30662;51.210;7.656;2023-03-25T03:51:11;150293.06;;;5.95;100.00
44926;BME280;30662;51.210;7.656;2023-03-25T03:53:51;150279.13;;;5.89;100.00
44926;BME280;30662;51.210;7.656;2023-03-25T03:57:00;150275.34;;;5.88;100.00
44926;BME280;30662;51.210;7.656;2023-03-25T03:59:40;150309.47;;;6.01;100.00
44926;BME280;30662;51.210;7.656;2023-03-25T04:02:12;150285.44;;;5.92;100.00
44926;BME280;30662;51.210;7.656;2023-03-25T04:04:49;150267.75;;;5.85;100.00
44926;BME280;30662;51.210;7.656;2023-03-25T04:07:17;150242.53;;;5.74;100.00
44926;BME280;30662;51.210;7.656;2023-03-25T04:12:33;150246.31;;;5.76;100.00
44926;BME280;30662;51.210;7.656;2023-03-25T04:15:04;150226.13;;;5.68;100.00
44926;BME280;30662;51.210;7.656;2023-03-25T04:17:31;150234.94;;;5.71;100.00
44926;BME280;30662;51.210;7.656;2023-03-25T04:20:00;150229.91;;;5.69;100.00
44926;BME280;30662;51.210;7.656;2023-03-25T04:22:33;150257.69;;;5.80;100.00
44926;BME280;30662;51.210;7.656;2023-03-25T04:25:05;150267.75;;;5.85;100.00
44926;BME280;30662;51.210;7.656;2023-03-25T04:27:31;150255.16;;;5.79;100.00
44926;BME280;30662;51.210;7.656;2023-03-25T04:29:58;150262.72;;;5.82;100.00
44926;BME280;30662;51.210;7.656;2023-03-25T04:32:26;150271.50;;;5.86;100.00
44926;BME280;30662;51.210;7.656;2023-03-25T04:34:53;150267.75;;;5.85;100.00
44926;BME280;30662;51.210;7.656;2023-03-25T04:37:26;150241.28;;;5.74;100.00
44926;BME280;30662;51.210;7.656;2023-03-25T04:39:53;150240.03;;;5.73;100.00
44926;BME280;30662;51.210;7.656;2023-03-25T04:42:23;150231.16;;;5.70;100.00
44926;BME280;30662;51.210;7.656;2023-03-25T04:44:53;150176.94;;;5.48;100.00
44926;BME280;30662;51.210;7.656;2023-03-25T04:47:22;150192.06;;;5.54;100.00
44926;BME280;30662;51.210;7.656;2023-03-25T04:49:49;150188.31;;;5.52;100.00
44926;BME280;30662;51.210;7.656;2023-03-25T04:52:15;150226.13;;;5.68;100.00
44926;BME280;30662;51.210;7.656;2023-03-25T04:54:42;150243.78;;;5.75;100.00
44926;BME280;30662;51.210;7.656;2023-03-25T04:57:09;150212.25;;;5.62;100.00
44926;BME280;30662;51.210;7.656;2023-03-25T04:59:35;150234.94;;;5.71;100.00
44926;BME280;30662;51.210;7.656;2023-03-25T05:02:02;150256.41;;;5.80;100.00
44926;BME280;30662;51.210;7.656;2023-03-25T05:04:30;150263.97;;;5.83;100.00
44926;BME280;30662;51.210;7.656;2023-03-25T05:06:57;150238.75;;;5.73;100.00
44926;BME280;30662;51.210;7.656;2023-03-25T05:09:23;150240.03;;;5.73;100.00
44926;BME280;30662;51.210;7.656;2023-03-25T05:11:50;150234.94;;;5.71;100.00
44926;BME280;30662;51.210;7.656;2023-03-25T05:14:19;150237.50;;;5.72;100.00
44926;BME280;30662;51.210;7.656;2023-03-25T05:16:46;150261.44;;;5.82;100.00
44926;BME280;30662;51.210;7.656;2023-03-25T05:19:13;150261.44;;;5.82;100.00
44926;BME280;30662;51.210;7.656;2023-03-25T05:21:40;150240.03;;;5.73;100.00
44926;BME280;30662;51.210;7.656;2023-03-25T05:24:09;150216.03;;;5.64;100.00
44926;BME280;30662;51.210;7.656;2023-03-25T05:26:37;150236.19;;;5.72;100.00
44926;BME280;30662;51.210;7.656;2023-03-25T05:29:10;150261.44;;;5.82;100.00
44926;BME280;30662;51.210;7.656;2023-03-25T05:31:39;150194.59;;;5.55;100.00
44926;BME280;30662;51.210;7.656;2023-03-25T05:34:06;150212.25;;;5.62;100.00
44926;BME280;30662;51.210;7.656;2023-03-25T05:36:33;150202.19;;;5.58;100.00
44926;BME280;30662;51.210;7.656;2023-03-25T05:39:00;150243.78;;;5.75;100.00
44926;BME280;30662;51.210;7.656;2023-03-25T05:41:27;150217.28;;;5.64;100.00
44926;BME280;30662;51.210;7.656;2023-03-25T05:44:07;150217.28;;;5.64;100.00
44926;BME280;30662;51.210;7.656;2023-03-25T05:46:33;150205.97;;;5.60;100.00
44926;BME280;30662;51.210;7.656;2023-03-25T05:48:59;150176.94;;;5.48;100.00
44926;BME280;30662;51.210;7.656;2023-03-25T05:51:28;150181.97;;;5.50;100.00
44926;BME280;30662;51.210;7.656;2023-03-25T05:53:58;150188.31;;;5.52;100.00
44926;BME280;30662;51.210;7.656;2023-03-25T05:56:24;150160.53;;;5.41;100.00
44926;BME280;30662;51.210;7.656;2023-03-25T05:58:51;150159.28;;;5.41;100.00
44926;BME280;30662;51.210;7.656;2023-03-25T06:01:18;150151.72;;;5.38;100.00
44926;BME280;30662;51.210;7.656;2023-03-25T06:03:59;150125.22;;;5.27;100.00
44926;BME280;30662;51.210;7.656;2023-03-25T06:06:30;150110.09;;;5.21;100.00
44926;BME280;30662;51.210;7.656;2023-03-25T06:08:58;150120.19;;;5.25;100.00
44926;BME280;30662;51.210;7.656;2023-03-25T06:11:24;150121.47;;;5.25;100.00
44926;BME280;30662;51.210;7.656;2023-03-25T06:13:50;150097.50;;;5.16;100.00
44926;BME280;30662;51.210;7.656;2023-03-25T06:16:18;150145.41;;;5.35;100.00
44926;BME280;30662;51.210;7.656;2023-03-25T06:18:45;150111.41;;;5.21;100.00
44926;BME280;30662;51.210;7.656;2023-03-25T06:21:16;150145.41;;;5.35;100.00
44926;BME280;30662;51.210;7.656;2023-03-25T06:23:43;150131.56;;;5.30;100.00
44926;BME280;30662;51.210;7.656;2023-03-25T06:26:09;150166.88;;;5.44;100.00
44926;BME280;30662;51.210;7.656;2023-03-25T06:28:35;150180.72;;;5.49;100.00
44926;BME280;30662;51.210;7.656;2023-03-25T06:31:01;150156.75;;;5.40;100.00
44926;BME280;30662;51.210;7.656;2023-03-25T06:33:31;150169.38;;;5.45;100.00
44926;BME280;30662;51.210;7.656;2023-03-25T06:36:12;150145.41;;;5.35;100.00
44926;BME280;30662;51.210;7.656;2023-03-25T06:38:40;150163.06;;;5.42;100.00
44926;BME280;30662;51.210;7.656;2023-03-25T06:41:06;150150.47;;;5.37;100.00
44926;BME280;30662;51.210;7.656;2023-03-25T06:43:33;150188.31;;;5.52;100.00
44926;BME280;30662;51.210;7.656;2023-03-25T06:45:59;150216.03;;;5.64;100.00
44926;BME280;30662;51.210;7.656;2023-03-25T06:48:25;150205.97;;;5.60;100.00
44926;BME280;30662;51.210;7.656;2023-03-25T06:50:51;150184.53;;;5.51;100.00
44926;BME280;30662;51.210;7.656;2023-03-25T06:53:17;150121.47;;;5.25;100.00
44926;BME280;30662;51.210;7.656;2023-03-25T06:55:43;150116.41;;;5.23;100.00
44926;BME280;30662;51.210;7.656;2023-03-25T06:58:10;150111.41;;;5.21;100.00
44926;BME280;30662;51.210;7.656;2023-03-25T07:00:36;150111.41;;;5.21;100.00
44926;BME280;30662;51.210;7.656;2023-03-25T07:03:02;150137.84;;;5.32;100.00
44926;BME280;30662;51.210;7.656;2023-03-25T07:05:28;150091.19;;;5.13;100.00
44926;BME280;30662;51.210;7.656;2023-03-25T07:07:54;150083.63;;;5.10;100.00
44926;BME280;30662;51.210;7.656;2023-03-25T07:10:20;150078.59;;;5.08;100.00
44926;BME280;30662;51.210;7.656;2023-03-25T07:12:46;150087.41;;;5.12;100.00
44926;BME280;30662;51.210;7.656;2023-03-25T07:15:12;150083.63;;;5.10;100.00
44926;BME280;30662;51.210;7.656;2023-03-25T07:17:38;150096.25;;;5.15;100.00
44926;BME280;30662;51.210;7.656;2023-03-25T07:20:05;150088.66;;;5.12;100.00
44926;BME280;30662;51.210;7.656;2023-03-25T07:22:31;150110.09;;;5.21;100.00
44926;BME280;30662;51.210;7.656;2023-03-25T07:24:57;150122.72;;;5.26;100.00
44926;BME280;30662;51.210;7.656;2023-03-25T07:27:23;150121.47;;;5.25;100.00
44926;BME280;30662;51.210;7.656;2023-03-25T07:29:50;150159.28;;;5.41;100.00
44926;BME280;30662;51.210;7.656;2023-03-25T07:32:16;150181.97;;;5.50;100.00
44926;BME280;30662;51.210;7.656;2023-03-25T07:34:42;150187.03;;;5.52;100.00
44926;BME280;30662;51.210;7.656;2023-03-25T07:37:07;150198.38;;;5.57;100.00
44926;BME280;30662;51.210;7.656;2023-03-25T07:39:34;150217.28;;;5.64;100.00
44926;BME280;30662;51.210;7.656;2023-03-25T07:41:59;150241.28;;;5.74;100.00
44926;BME280;30662;51.210;7.656;2023-03-25T07:44:25;150237.50;;;5.72;100.00
44926;BME280;30662;51.210;7.656;2023-03-25T07:46:51;150261.44;;;5.82;100.00
44926;BME280;30662;51.210;7.656;2023-03-25T07:49:17;150267.75;;;5.85;100.00
44926;BME280;30662;51.210;7.656;2023-03-25T07:51:44;150261.44;;;5.82;100.00
44926;BME280;30662;51.210;7.656;2023-03-25T07:54:10;150245.06;;;5.75;100.00
44926;BME280;30662;51.210;7.656;2023-03-25T07:56:36;150243.78;;;5.75;100.00
44926;BME280;30662;51.210;7.656;2023-03-25T07:59:03;150228.66;;;5.69;100.00
44926;BME280;30662;51.210;7.656;2023-03-25T08:01:29;150246.31;;;5.76;100.00
44926;BME280;30662;51.210;7.656;2023-03-25T08:03:56;150267.75;;;5.85;100.00
44926;BME280;30662;51.210;7.656;2023-03-25T08:06:22;150275.34;;;5.88;100.00
44926;BME280;30662;51.210;7.656;2023-03-25T08:08:48;150269.00;;;5.85;100.00
44926;BME280;30662;51.210;7.656;2023-03-25T08:11:14;150282.94;;;5.91;100.00
44926;BME280;30662;51.210;7.656;2023-03-25T08:13:40;150301.84;;;5.98;100.00
44926;BME280;30662;51.210;7.656;2023-03-25T08:16:11;150337.19;;;6.13;100.00
44926;BME280;30662;51.210;7.656;2023-03-25T08:18:37;150361.16;;;6.22;100.00
44926;BME280;30662;51.210;7.656;2023-03-25T08:21:03;150346.03;;;6.16;100.00
44926;BME280;30662;51.210;7.656;2023-03-25T08:23:29;150314.50;;;6.03;100.00
44926;BME280;30662;51.210;7.656;2023-03-25T08:25:56;150335.94;;;6.12;100.00
44926;BME280;30662;51.210;7.656;2023-03-25T08:28:22;150325.81;;;6.08;100.00
44926;BME280;30662;51.210;7.656;2023-03-25T08:30:49;150318.25;;;6.05;100.00
44926;BME280;30662;51.210;7.656;2023-03-25T08:33:20;150335.94;;;6.12;100.00
44926;BME280;30662;51.210;7.656;2023-03-25T08:35:47;150306.88;;;6.00;100.00
44926;BME280;30662;51.210;7.656;2023-03-25T08:38:16;150348.56;;;6.17;100.00
44926;BME280;30662;51.210;7.656;2023-03-25T08:40:42;150330.91;;;6.10;100.00
44926;BME280;30662;51.210;7.656;2023-03-25T08:43:09;150339.69;;;6.14;100.00
44926;BME280;30662;51.210;7.656;2023-03-25T08:45:35;150361.16;;;6.22;100.00
44926;BME280;30662;51.210;7.656;2023-03-25T08:48:03;150323.28;;;6.07;100.00
44926;BME280;30662;51.210;7.656;2023-03-25T08:50:29;150315.75;;;6.04;100.00
44926;BME280;30662;51.210;7.656;2023-03-25T08:52:56;150315.75;;;6.04;100.00
44926;BME280;30662;51.210;7.656;2023-03-25T08:55:23;150348.56;;;6.17;100.00
44926;BME280;30662;51.210;7.656;2023-03-25T08:57:50;150339.69;;;6.14;100.00
44926;BME280;30662;51.210;7.656;2023-03-25T09:00:16;150348.56;;;6.17;100.00
44926;BME280;30662;51.210;7.656;2023-03-25T09:02:43;150348.56;;;6.17;100.00
44926;BME280;30662;51.210;7.656;2023-03-25T09:05:10;150368.75;;;6.25;100.00
44926;BME280;30662;51.210;7.656;2023-03-25T09:07:38;150334.66;;;6.12;100.00
44926;BME280;30662;51.210;7.656;2023-03-25T09:10:05;150361.16;;;6.22;100.00
44926;BME280;30662;51.210;7.656;2023-03-25T09:12:32;150377.56;;;6.29;100.00
44926;BME280;30662;51.210;7.656;2023-03-25T09:14:58;150396.47;;;6.36;100.00
44926;BME280;30662;51.210;7.656;2023-03-25T09:17:24;150402.81;;;6.39;100.00
44926;BME280;30662;51.210;7.656;2023-03-25T09:19:50;150430.56;;;6.50;100.00
44926;BME280;30662;51.210;7.656;2023-03-25T09:22:19;150436.91;;;6.53;100.00
44926;BME280;30662;51.210;7.656;2023-03-25T09:24:45;150470.97;;;6.67;100.00
44926;BME280;30662;51.210;7.656;2023-03-25T09:27:11;150474.75;;;6.68;100.00
44926;BME280;30662;51.210;7.656;2023-03-25T09:29:36;150477.28;;;6.69;100.00
44926;BME280;30662;51.210;7.656;2023-03-25T09:32:03;150477.28;;;6.69;100.00
44926;BME280;30662;51.210;7.656;2023-03-25T09:34:29;150472.25;;;6.67;100.00
44926;BME280;30662;51.210;7.656;2023-03-25T09:36:55;150439.41;;;6.54;100.00
44926;BME280;30662;51.210;7.656;2023-03-25T09:39:22;150419.22;;;6.46;100.00
44926;BME280;30662;51.210;7.656;2023-03-25T09:46:57;150361.16;;;6.22;100.00
44926;BME280;30662;51.210;7.656;2023-03-25T09:49:33;150368.75;;;6.25;100.00
44926;BME280;30662;51.210;7.656;2023-03-25T09:52:03;150388.94;;;6.33;100.00
44926;BME280;30662;51.210;7.656;2023-03-25T09:54:31;150439.41;;;6.54;100.00
44926;BME280;30662;51.210;7.656;2023-03-25T09:57:03;150393.97;;;6.35;100.00
44926;BME280;30662;51.210;7.656;2023-03-25T09:59:46;150407.84;;;6.41;100.00
44926;BME280;30662;51.210;7.656;2023-03-25T10:02:29;150421.75;;;6.47;100.00
44926;BME280;30662;51.210;7.656;2023-03-25T10:08:11;150470.97;;;6.67;100.00
44926;BME280;30662;51.210;7.656;2023-03-25T10:10:47;150425.53;;;6.48;100.00
44926;BME280;30662;51.210;7.656;2023-03-25T10:15:57;150446.97;;;6.57;100.00
44926;BME280;30662;51.210;7.656;2023-03-25T10:18:32;150446.97;;;6.57;100.00
44926;BME280;30662;51.210;7.656;2023-03-25T10:21:24;150440.69;;;6.54;100.00
44926;BME280;30662;51.210;7.656;2023-03-25T10:24:30;150411.63;;;6.43;100.00
44926;BME280;30662;51.210;7.656;2023-03-25T10:27:20;150435.63;;;6.52;100.00
44926;BME280;30662;51.210;7.656;2023-03-25T10:29:59;150487.34;;;6.73;100.00
44926;BME280;30662;51.210;7.656;2023-03-25T10:35:24;150535.34;;;6.93;100.00
44926;BME280;30662;51.210;7.656;2023-03-25T10:37:53;150496.22;;;6.77;100.00
44926;BME280;30662;51.210;7.656;2023-03-25T10:40:26;150516.41;;;6.85;100.00
44926;BME280;30662;51.210;7.656;2023-03-25T10:42:57;150510.09;;;6.82;100.00
44926;BME280;30662;51.210;7.656;2023-03-25T10:45:25;150560.63;;;7.03;100.00
44926;BME280;30662;51.210;7.656;2023-03-25T10:47:54;150511.38;;;6.83;100.00
44926;BME280;30662;51.210;7.656;2023-03-25T10:50:23;150545.47;;;6.97;100.00
44926;BME280;30662;51.210;7.656;2023-03-25T10:52:50;150566.91;;;7.05;100.00
44926;BME280;30662;51.210;7.656;2023-03-25T10:55:22;150541.63;;;6.95;100.00
44926;BME280;30662;51.210;7.656;2023-03-25T10:57:51;150553.00;;;7.00;100.00
44926;BME280;30662;51.210;7.656;2023-03-25T11:00:18;150551.75;;;6.99;100.00
44926;BME280;30662;51.210;7.656;2023-03-25T11:02:48;150616.16;;;7.25;100.00
44926;BME280;30662;51.210;7.656;2023-03-25T11:05:18;150667.97;;;7.46;100.00
44926;BME280;30662;51.210;7.656;2023-03-25T11:07:57;150622.47;;;7.28;100.00
44926;BME280;30662;51.210;7.656;2023-03-25T11:10:34;150648.97;;;7.38;100.00
44926;BME280;30662;51.210;7.656;2023-03-25T11:13:00;150650.28;;;7.39;100.00
44926;BME280;30662;51.210;7.656;2023-03-25T11:15:35;150681.81;;;7.52;100.00
44926;BME280;30662;51.210;7.656;2023-03-25T11:18:21;150688.16;;;7.54;100.00
44926;BME280;30662;51.210;7.656;2023-03-25T11:20:56;150737.38;;;7.74;100.00
44926;BME280;30662;51.210;7.656;2023-03-25T11:23:29;150739.97;;;7.75;100.00
44926;BME280;30662;51.210;7.656;2023-03-25T11:26:02;150704.59;;;7.61;100.00
44926;BME280;30662;51.210;7.656;2023-03-25T11:28:43;150748.78;;;7.79;100.00
44926;BME280;30662;51.210;7.656;2023-03-25T11:31:14;150681.81;;;7.52;100.00
44926;BME280;30662;51.210;7.656;2023-03-25T11:33:42;150635.13;;;7.33;100.00
44926;BME280;30662;51.210;7.656;2023-03-25T11:38:46;150607.31;;;7.22;100.00
44926;BME280;30662;51.210;7.656;2023-03-25T11:41:15;150556.78;;;7.01;100.00
44926;BME280;30662;51.210;7.656;2023-03-25T11:43:41;150510.09;;;6.82;100.00
44926;BME280;30662;51.210;7.656;2023-03-25T11:46:12;150587.13;;;7.13;100.00
44926;BME280;30662;51.210;7.656;2023-03-25T11:48:41;150667.97;;;7.46;100.00
44926;BME280;30662;51.210;7.656;2023-03-25T11:51:14;150878.91;;;8.31;100.00
44926;BME280;30662;51.210;7.656;2023-03-25T11:53:46;150977.59;;;8.71;100.00
44926;BME280;30662;51.210;7.656;2023-03-25T11:56:20;150896.66;;;8.38;100.00
44926;BME280;30662;51.210;7.656;2023-03-25T11:58:48;150806.88;;;8.02;100.00
44926;BME280;30662;51.210;7.656;2023-03-25T12:01:22;150805.63;;;8.01;100.00
44926;BME280;30662;51.210;7.656;2023-03-25T12:03:50;150755.06;;;7.81;100.00
44926;BME280;30662;51.210;7.656;2023-03-25T12:06:22;150777.84;;;7.90;100.00
44926;BME280;30662;51.210;7.656;2023-03-25T12:08:57;150789.19;;;7.95;100.00
44926;BME280;30662;51.210;7.656;2023-03-25T12:11:28;150870.09;;;8.27;100.00
44926;BME280;30662;51.210;7.656;2023-03-25T12:14:31;150873.88;;;8.29;100.00
44926;BME280;30662;51.210;7.656;2023-03-25T12:30:31;151090.09;;;9.16;100.00
44926;BME280;30662;51.210;7.656;2023-03-25T12:33:13;150882.69;;;8.33;100.00
44926;BME280;30662;51.210;7.656;2023-03-25T12:35:48;150734.88;;;7.73;100.00
44926;BME280;30662;51.210;7.656;2023-03-25T12:41:16;150717.19;;;7.66;100.00
44926;BME280;30662;51.210;7.656;2023-03-25T12:43:57;150790.47;;;7.95;100.00
44926;BME280;30662;51.210;7.656;2023-03-25T12:46:44;150832.19;;;8.12;100.00
44926;BME280;30662;51.210;7.656;2023-03-25T12:49:24;150794.28;;;7.97;100.00
44926;BME280;30662;51.210;7.656;2023-03-25T12:52:03;150762.69;;;7.84;100.00
44926;BME280;30662;51.210;7.656;2023-03-25T13:03:13;150589.63;;;7.14;100.00
44926;BME280;30662;51.210;7.656;2023-03-25T13:05:52;150508.84;;;6.82;100.00
44926;BME280;30662;51.210;7.656;2023-03-25T13:08:27;150520.19;;;6.86;100.00
44926;BME280;30662;51.210;7.656;2023-03-25T13:11:13;150487.34;;;6.73;100.00
44926;BME280;30662;51.210;7.656;2023-03-25T13:13:43;150599.75;;;7.18;100.00
44926;BME280;30662;51.210;7.656;2023-03-25T13:16:15;150654.06;;;7.40;100.00
44926;BME280;30662;51.210;7.656;2023-03-25T13:19:01;151014.25;;;8.86;100.00
44926;BME280;30662;51.210;7.656;2023-03-25T13:21:34;151243.19;;;9.78;100.00
44926;BME280;30662;51.210;7.656;2023-03-25T13:24:10;151183.69;;;9.54;100.00
44926;BME280;30662;51.210;7.656;2023-03-25T13:26:40;151317.84;;;10.08;100.00
44926;BME280;30662;51.210;7.656;2023-03-25T13:29:23;151716.72;;;11.68;100.00
44926;BME280;30662;51.210;7.656;2023-03-25T13:31:51;151856.19;;;12.24;100.00
44926;BME280;30662;51.210;7.656;2023-03-25T13:34:27;151957.56;;;12.65;100.00
44926;BME280;30662;51.210;7.656;2023-03-25T13:37:11;151875.19;;;12.32;100.00
44926;BME280;30662;51.210;7.656;2023-03-25T13:43:01;151720.53;;;11.70;100.00
44926;BME280;30662;51.210;7.656;2023-03-25T13:48:16;151511.50;;;10.86;100.00
44926;BME280;30662;51.210;7.656;2023-03-25T13:50:43;151393.81;;;10.38;100.00
44926;BME280;30662;51.210;7.656;2023-03-25T13:53:28;151269.72;;;9.88;100.00
44926;BME280;30662;51.210;7.656;2023-03-25T13:56:28;151140.69;;;9.36;100.00
44926;BME280;30662;51.210;7.656;2023-03-25T14:01:54;151005.38;;;8.82;100.00
44926;BME280;30662;51.210;7.656;2023-03-25T14:07:35;150921.97;;;8.48;100.00
44926;BME280;30662;51.210;7.656;2023-03-25T14:13:12;150657.84;;;7.42;100.00
44926;BME280;30662;51.210;7.656;2023-03-25T14:15:52;150478.53;;;6.70;100.00
44926;BME280;30662;51.210;7.656;2023-03-25T14:18:21;150357.38;;;6.21;100.00
44926;BME280;30662;51.210;7.656;2023-03-25T14:20:47;150293.06;;;5.95;100.00
44926;BME280;30662;51.210;7.656;2023-03-25T14:23:17;150300.59;;;5.98;100.00
44926;BME280;30662;51.210;7.656;2023-03-25T14:25:48;150304.38;;;5.99;100.00
44926;BME280;30662;51.210;7.656;2023-03-25T14:28:20;150303.13;;;5.99;100.00
44926;BME280;30662;51.210;7.656;2023-03-25T14:31:29;150272.81;;;5.87;100.00
44926;BME280;30662;51.210;7.656;2023-03-25T14:36:30;150404.06;;;6.40;100.00
44926;BME280;30662;51.210;7.656;2023-03-25T14:44:41;150635.13;;;7.33;100.00
44926;BME280;30662;51.210;7.656;2023-03-25T14:50:14;150508.84;;;6.82;100.00
44926;BME280;30662;51.210;7.656;2023-03-25T14:53:09;150448.22;;;6.57;100.00
44926;BME280;30662;51.210;7.656;2023-03-25T14:55:42;150429.31;;;6.50;100.00
44926;BME280;30662;51.210;7.656;2023-03-25T14:58:25;150455.84;;;6.60;100.00